Terminal Aerodrome Forecast
Issued by NWS

Home | Current Version | Previous Version | Text Only | Print | Product List | Glossary On
Versions: 1 2 3 4 5 6 7 8 9 10 11 12 13 14 15 16 17 18 19 20 21 22
000
FTUS41 KGYX 011402 AAD
TAFRKD
TAF AMD
KRKD 011402Z 0114/0212 26004KT P6SM SCT005 BKN070
     FM011500 29004KT P6SM SCT070
     FM012000 21006KT 3SM BR SKC
     FM020000 22003KT 1 1/2SM BR OVC001
     FM020300 16002KT 3/4SM BR VV001
      AMD LTD TO CLD VIS AND WIND=

USA.gov is the U.S. government's official web portal to all federal, state and local government web resources and services.